sensor_id;sensor_type;location;lat;lon;timestamp;P1;durP1;ratioP1;P2;durP2;ratioP2
37455;SDS011;23316;50.718;7.328;2023-06-22T00:02:21;8.70;;;6.25;;
37455;SDS011;23316;50.718;7.328;2023-06-22T00:04:48;6.60;;;5.90;;
37455;SDS011;23316;50.718;7.328;2023-06-22T00:07:17;8.07;;;6.03;;
37455;SDS011;23316;50.718;7.328;2023-06-22T00:09:44;8.25;;;5.78;;
37455;SDS011;23316;50.718;7.328;2023-06-22T00:12:11;6.97;;;5.80;;
37455;SDS011;23316;50.718;7.328;2023-06-22T00:14:39;6.57;;;5.72;;
37455;SDS011;23316;50.718;7.328;2023-06-22T00:17:06;7.05;;;5.50;;
37455;SDS011;23316;50.718;7.328;2023-06-22T00:19:33;6.57;;;5.68;;
37455;SDS011;23316;50.718;7.328;2023-06-22T00:22:00;6.47;;;5.50;;
37455;SDS011;23316;50.718;7.328;2023-06-22T00:24:30;6.85;;;5.60;;
37455;SDS011;23316;50.718;7.328;2023-06-22T00:26:57;7.65;;;6.10;;
37455;SDS011;23316;50.718;7.328;2023-06-22T00:29:24;6.95;;;6.13;;
37455;SDS011;23316;50.718;7.328;2023-06-22T00:31:51;6.90;;;5.93;;
37455;SDS011;23316;50.718;7.328;2023-06-22T00:34:19;7.38;;;5.65;;
37455;SDS011;23316;50.718;7.328;2023-06-22T00:36:46;7.30;;;6.03;;
37455;SDS011;23316;50.718;7.328;2023-06-22T00:39:13;7.57;;;6.38;;
37455;SDS011;23316;50.718;7.328;2023-06-22T00:41:41;6.60;;;5.70;;
37455;SDS011;23316;50.718;7.328;2023-06-22T00:44:09;6.78;;;5.35;;
37455;SDS011;23316;50.718;7.328;2023-06-22T00:46:36;7.88;;;6.25;;
37455;SDS011;23316;50.718;7.328;2023-06-22T00:49:03;8.73;;;5.80;;
37455;SDS011;23316;50.718;7.328;2023-06-22T00:51:31;8.88;;;7.13;;
37455;SDS011;23316;50.718;7.328;2023-06-22T00:53:58;10.48;;;6.82;;
37455;SDS011;23316;50.718;7.328;2023-06-22T00:56:26;9.20;;;7.05;;
37455;SDS011;23316;50.718;7.328;2023-06-22T00:58:56;8.68;;;6.45;;
37455;SDS011;23316;50.718;7.328;2023-06-22T01:01:25;7.95;;;6.95;;
37455;SDS011;23316;50.718;7.328;2023-06-22T01:03:52;10.65;;;6.38;;
37455;SDS011;23316;50.718;7.328;2023-06-22T01:06:25;7.38;;;6.05;;
37455;SDS011;23316;50.718;7.328;2023-06-22T01:09:00;7.70;;;6.43;;
37455;SDS011;23316;50.718;7.328;2023-06-22T01:11:35;7.18;;;6.35;;
37455;SDS011;23316;50.718;7.328;2023-06-22T01:14:15;8.50;;;7.03;;
37455;SDS011;23316;50.718;7.328;2023-06-22T01:16:49;7.80;;;7.00;;
37455;SDS011;23316;50.718;7.328;2023-06-22T01:19:27;9.60;;;7.43;;
37455;SDS011;23316;50.718;7.328;2023-06-22T01:22:02;10.52;;;7.97;;
37455;SDS011;23316;50.718;7.328;2023-06-22T01:24:32;8.57;;;7.10;;
37455;SDS011;23316;50.718;7.328;2023-06-22T01:27:09;9.63;;;7.03;;
37455;SDS011;23316;50.718;7.328;2023-06-22T01:29:49;9.35;;;6.65;;
37455;SDS011;23316;50.718;7.328;2023-06-22T01:32:17;8.32;;;6.82;;
37455;SDS011;23316;50.718;7.328;2023-06-22T01:34:45;7.85;;;6.75;;
37455;SDS011;23316;50.718;7.328;2023-06-22T01:37:13;9.90;;;6.57;;
37455;SDS011;23316;50.718;7.328;2023-06-22T01:39:41;8.10;;;6.28;;
37455;SDS011;23316;50.718;7.328;2023-06-22T01:42:09;7.60;;;6.03;;
37455;SDS011;23316;50.718;7.328;2023-06-22T01:44:37;7.28;;;6.38;;
37455;SDS011;23316;50.718;7.328;2023-06-22T01:47:06;7.57;;;6.57;;
37455;SDS011;23316;50.718;7.328;2023-06-22T01:49:34;7.35;;;6.35;;
37455;SDS011;23316;50.718;7.328;2023-06-22T01:52:01;7.45;;;6.45;;
37455;SDS011;23316;50.718;7.328;2023-06-22T01:54:29;9.88;;;6.55;;
37455;SDS011;23316;50.718;7.328;2023-06-22T01:56:57;8.35;;;6.85;;
37455;SDS011;23316;50.718;7.328;2023-06-22T01:59:25;8.98;;;7.10;;
37455;SDS011;23316;50.718;7.328;2023-06-22T02:01:57;11.18;;;6.85;;
37455;SDS011;23316;50.718;7.328;2023-06-22T02:04:31;8.63;;;6.50;;
37455;SDS011;23316;50.718;7.328;2023-06-22T02:07:05;8.13;;;7.28;;
37455;SDS011;23316;50.718;7.328;2023-06-22T02:09:38;9.27;;;7.03;;
37455;SDS011;23316;50.718;7.328;2023-06-22T02:12:07;9.20;;;6.88;;
37455;SDS011;23316;50.718;7.328;2023-06-22T02:14:37;7.80;;;6.45;;
37455;SDS011;23316;50.718;7.328;2023-06-22T02:17:05;8.45;;;6.93;;
37455;SDS011;23316;50.718;7.328;2023-06-22T02:19:37;8.20;;;7.20;;
37455;SDS011;23316;50.718;7.328;2023-06-22T02:22:04;8.60;;;7.53;;
37455;SDS011;23316;50.718;7.328;2023-06-22T02:24:32;9.43;;;6.57;;
37455;SDS011;23316;50.718;7.328;2023-06-22T02:26:59;9.98;;;6.43;;
37455;SDS011;23316;50.718;7.328;2023-06-22T02:29:28;8.30;;;7.13;;
37455;SDS011;23316;50.718;7.328;2023-06-22T02:31:56;8.07;;;6.90;;
37455;SDS011;23316;50.718;7.328;2023-06-22T02:34:24;7.45;;;6.68;;
37455;SDS011;23316;50.718;7.328;2023-06-22T02:36:52;7.65;;;6.85;;
37455;SDS011;23316;50.718;7.328;2023-06-22T02:39:20;8.25;;;6.88;;
37455;SDS011;23316;50.718;7.328;2023-06-22T02:41:48;8.48;;;7.10;;
37455;SDS011;23316;50.718;7.328;2023-06-22T02:44:17;8.52;;;6.38;;
37455;SDS011;23316;50.718;7.328;2023-06-22T02:46:44;8.13;;;6.97;;
37455;SDS011;23316;50.718;7.328;2023-06-22T02:49:12;8.38;;;7.47;;
37455;SDS011;23316;50.718;7.328;2023-06-22T02:51:39;8.90;;;6.90;;
37455;SDS011;23316;50.718;7.328;2023-06-22T02:54:11;9.52;;;7.43;;
37455;SDS011;23316;50.718;7.328;2023-06-22T02:56:38;7.63;;;6.68;;
37455;SDS011;23316;50.718;7.328;2023-06-22T02:59:06;8.90;;;7.43;;
37455;SDS011;23316;50.718;7.328;2023-06-22T03:01:33;8.18;;;6.93;;
37455;SDS011;23316;50.718;7.328;2023-06-22T03:04:05;7.63;;;6.82;;
37455;SDS011;23316;50.718;7.328;2023-06-22T03:06:33;9.57;;;7.38;;
37455;SDS011;23316;50.718;7.328;2023-06-22T03:09:02;8.80;;;7.60;;
37455;SDS011;23316;50.718;7.328;2023-06-22T03:11:31;10.00;;;8.10;;
37455;SDS011;23316;50.718;7.328;2023-06-22T03:13:59;11.55;;;7.28;;
37455;SDS011;23316;50.718;7.328;2023-06-22T03:16:27;8.45;;;7.60;;
37455;SDS011;23316;50.718;7.328;2023-06-22T03:18:55;10.00;;;7.70;;
37455;SDS011;23316;50.718;7.328;2023-06-22T03:21:22;9.52;;;7.80;;
37455;SDS011;23316;50.718;7.328;2023-06-22T03:23:50;11.85;;;8.20;;
37455;SDS011;23316;50.718;7.328;2023-06-22T03:26:17;9.52;;;8.15;;
37455;SDS011;23316;50.718;7.328;2023-06-22T03:28:46;10.30;;;8.30;;
37455;SDS011;23316;50.718;7.328;2023-06-22T03:31:13;9.45;;;7.97;;
37455;SDS011;23316;50.718;7.328;2023-06-22T03:33:40;9.45;;;8.32;;
37455;SDS011;23316;50.718;7.328;2023-06-22T03:36:08;10.13;;;7.47;;
37455;SDS011;23316;50.718;7.328;2023-06-22T03:38:35;8.77;;;7.88;;
37455;SDS011;23316;50.718;7.328;2023-06-22T03:41:02;8.68;;;7.50;;
37455;SDS011;23316;50.718;7.328;2023-06-22T03:43:29;10.90;;;8.00;;
37455;SDS011;23316;50.718;7.328;2023-06-22T03:45:58;10.43;;;7.90;;
37455;SDS011;23316;50.718;7.328;2023-06-22T03:48:25;10.77;;;7.90;;
37455;SDS011;23316;50.718;7.328;2023-06-22T03:50:52;9.15;;;7.65;;
37455;SDS011;23316;50.718;7.328;2023-06-22T03:53:20;10.43;;;8.27;;
37455;SDS011;23316;50.718;7.328;2023-06-22T03:55:47;10.23;;;9.02;;
37455;SDS011;23316;50.718;7.328;2023-06-22T03:58:16;11.77;;;9.50;;
37455;SDS011;23316;50.718;7.328;2023-06-22T04:00:44;8.88;;;7.97;;
37455;SDS011;23316;50.718;7.328;2023-06-22T04:03:14;8.82;;;7.93;;
37455;SDS011;23316;50.718;7.328;2023-06-22T04:05:41;11.05;;;7.78;;
37455;SDS011;23316;50.718;7.328;2023-06-22T04:08:09;9.90;;;8.07;;
37455;SDS011;23316;50.718;7.328;2023-06-22T04:10:36;9.45;;;7.50;;
37455;SDS011;23316;50.718;7.328;2023-06-22T04:13:03;10.80;;;7.10;;
37455;SDS011;23316;50.718;7.328;2023-06-22T04:15:31;9.05;;;7.60;;
37455;SDS011;23316;50.718;7.328;2023-06-22T04:17:58;11.93;;;8.15;;
37455;SDS011;23316;50.718;7.328;2023-06-22T04:20:26;10.68;;;7.32;;
37455;SDS011;23316;50.718;7.328;2023-06-22T04:22:54;9.25;;;7.22;;
37455;SDS011;23316;50.718;7.328;2023-06-22T04:25:21;9.30;;;7.68;;
37455;SDS011;23316;50.718;7.328;2023-06-22T04:27:48;11.45;;;8.65;;
37455;SDS011;23316;50.718;7.328;2023-06-22T04:30:16;10.93;;;8.07;;
37455;SDS011;23316;50.718;7.328;2023-06-22T04:32:43;11.50;;;8.20;;
37455;SDS011;23316;50.718;7.328;2023-06-22T04:35:11;10.13;;;7.57;;
37455;SDS011;23316;50.718;7.328;2023-06-22T04:37:40;9.77;;;7.72;;
37455;SDS011;23316;50.718;7.328;2023-06-22T04:40:07;11.13;;;8.00;;
37455;SDS011;23316;50.718;7.328;2023-06-22T04:42:35;8.88;;;7.68;;
37455;SDS011;23316;50.718;7.328;2023-06-22T04:45:04;11.70;;;8.25;;
37455;SDS011;23316;50.718;7.328;2023-06-22T04:47:32;9.25;;;7.63;;
37455;SDS011;23316;50.718;7.328;2023-06-22T04:49:59;9.40;;;7.57;;
37455;SDS011;23316;50.718;7.328;2023-06-22T04:52:31;10.90;;;8.27;;
37455;SDS011;23316;50.718;7.328;2023-06-22T04:54:59;9.38;;;8.02;;
37455;SDS011;23316;50.718;7.328;2023-06-22T04:57:27;9.65;;;7.80;;
37455;SDS011;23316;50.718;7.328;2023-06-22T04:59:58;10.38;;;8.18;;
37455;SDS011;23316;50.718;7.328;2023-06-22T05:05:09;11.05;;;7.65;;
37455;SDS011;23316;50.718;7.328;2023-06-22T05:07:39;9.82;;;7.93;;
37455;SDS011;23316;50.718;7.328;2023-06-22T05:10:10;9.55;;;7.97;;
37455;SDS011;23316;50.718;7.328;2023-06-22T05:12:38;10.15;;;7.70;;
37455;SDS011;23316;50.718;7.328;2023-06-22T05:15:07;11.18;;;7.90;;
37455;SDS011;23316;50.718;7.328;2023-06-22T05:17:35;12.02;;;8.20;;
37455;SDS011;23316;50.718;7.328;2023-06-22T05:20:08;9.03;;;7.77;;
37455;SDS011;23316;50.718;7.328;2023-06-22T05:22:36;8.57;;;7.38;;
37455;SDS011;23316;50.718;7.328;2023-06-22T05:25:05;9.50;;;7.25;;
37455;SDS011;23316;50.718;7.328;2023-06-22T05:27:36;9.35;;;7.47;;
37455;SDS011;23316;50.718;7.328;2023-06-22T05:30:06;10.05;;;7.13;;
37455;SDS011;23316;50.718;7.328;2023-06-22T05:32:34;11.45;;;7.22;;
37455;SDS011;23316;50.718;7.328;2023-06-22T05:35:02;10.55;;;7.03;;
37455;SDS011;23316;50.718;7.328;2023-06-22T05:37:29;9.10;;;7.18;;
37455;SDS011;23316;50.718;7.328;2023-06-22T05:39:59;8.68;;;6.93;;
37455;SDS011;23316;50.718;7.328;2023-06-22T05:42:29;11.57;;;7.10;;
37455;SDS011;23316;50.718;7.328;2023-06-22T05:44:58;7.65;;;6.53;;
37455;SDS011;23316;50.718;7.328;2023-06-22T05:47:25;9.13;;;7.07;;
37455;SDS011;23316;50.718;7.328;2023-06-22T05:49:52;9.93;;;7.20;;
37455;SDS011;23316;50.718;7.328;2023-06-22T05:52:20;7.72;;;6.93;;
37455;SDS011;23316;50.718;7.328;2023-06-22T05:54:47;8.18;;;6.72;;
37455;SDS011;23316;50.718;7.328;2023-06-22T05:57:14;10.10;;;7.30;;
37455;SDS011;23316;50.718;7.328;2023-06-22T05:59:41;10.15;;;7.18;;
37455;SDS011;23316;50.718;7.328;2023-06-22T06:02:10;9.02;;;6.70;;
37455;SDS011;23316;50.718;7.328;2023-06-22T06:04:37;9.48;;;6.88;;
37455;SDS011;23316;50.718;7.328;2023-06-22T06:07:04;7.68;;;6.60;;
37455;SDS011;23316;50.718;7.328;2023-06-22T06:09:31;7.32;;;6.35;;
37455;SDS011;23316;50.718;7.328;2023-06-22T06:11:59;8.90;;;7.38;;
37455;SDS011;23316;50.718;7.328;2023-06-22T06:14:28;8.48;;;7.28;;
37455;SDS011;23316;50.718;7.328;2023-06-22T06:16:55;9.23;;;6.57;;
37455;SDS011;23316;50.718;7.328;2023-06-22T06:19:24;8.48;;;7.43;;
37455;SDS011;23316;50.718;7.328;2023-06-22T06:21:51;12.15;;;8.15;;
37455;SDS011;23316;50.718;7.328;2023-06-22T06:24:18;11.32;;;8.07;;
37455;SDS011;23316;50.718;7.328;2023-06-22T06:26:46;11.73;;;8.90;;
37455;SDS011;23316;50.718;7.328;2023-06-22T06:29:14;9.85;;;8.00;;
37455;SDS011;23316;50.718;7.328;2023-06-22T06:31:41;11.20;;;7.85;;
37455;SDS011;23316;50.718;7.328;2023-06-22T06:34:09;10.82;;;8.55;;
37455;SDS011;23316;50.718;7.328;2023-06-22T06:36:38;9.38;;;8.32;;
37455;SDS011;23316;50.718;7.328;2023-06-22T06:39:05;10.32;;;7.47;;
37455;SDS011;23316;50.718;7.328;2023-06-22T06:41:32;8.77;;;7.82;;
37455;SDS011;23316;50.718;7.328;2023-06-22T06:43:59;11.73;;;8.88;;
37455;SDS011;23316;50.718;7.328;2023-06-22T06:46:26;10.02;;;8.85;;
37455;SDS011;23316;50.718;7.328;2023-06-22T06:48:54;12.15;;;9.40;;
37455;SDS011;23316;50.718;7.328;2023-06-22T06:51:21;12.60;;;9.35;;
37455;SDS011;23316;50.718;7.328;2023-06-22T06:53:49;11.75;;;9.25;;
37455;SDS011;23316;50.718;7.328;2023-06-22T06:56:17;12.27;;;9.15;;
37455;SDS011;23316;50.718;7.328;2023-06-22T06:58:44;11.07;;;8.95;;
37455;SDS011;23316;50.718;7.328;2023-06-22T07:01:11;11.55;;;9.85;;
37455;SDS011;23316;50.718;7.328;2023-06-22T07:03:38;13.05;;;9.65;;
37455;SDS011;23316;50.718;7.328;2023-06-22T07:06:06;14.23;;;10.18;;
37455;SDS011;23316;50.718;7.328;2023-06-22T07:08:33;12.30;;;9.82;;
37455;SDS011;23316;50.718;7.328;2023-06-22T07:11:02;12.15;;;10.05;;
37455;SDS011;23316;50.718;7.328;2023-06-22T07:13:29;14.30;;;9.90;;
37455;SDS011;23316;50.718;7.328;2023-06-22T07:15:57;11.82;;;9.55;;
37455;SDS011;23316;50.718;7.328;2023-06-22T07:18:24;13.05;;;8.65;;
37455;SDS011;23316;50.718;7.328;2023-06-22T07:20:52;11.07;;;8.82;;
37455;SDS011;23316;50.718;7.328;2023-06-22T07:23:19;15.10;;;9.13;;
37455;SDS011;23316;50.718;7.328;2023-06-22T07:25:46;11.68;;;7.88;;
37455;SDS011;23316;50.718;7.328;2023-06-22T07:28:16;13.73;;;8.35;;
37455;SDS011;23316;50.718;7.328;2023-06-22T07:30:48;10.38;;;9.27;;
37455;SDS011;23316;50.718;7.328;2023-06-22T07:33:22;9.27;;;8.18;;
37455;SDS011;23316;50.718;7.328;2023-06-22T07:36:00;11.32;;;9.18;;
37455;SDS011;23316;50.718;7.328;2023-06-22T07:38:56;11.35;;;9.38;;
37455;SDS011;23316;50.718;7.328;2023-06-22T07:44:20;9.98;;;8.90;;
37455;SDS011;23316;50.718;7.328;2023-06-22T07:47:04;10.68;;;8.43;;
37455;SDS011;23316;50.718;7.328;2023-06-22T07:49:35;14.05;;;8.65;;
37455;SDS011;23316;50.718;7.328;2023-06-22T07:52:10;13.40;;;9.32;;
37455;SDS011;23316;50.718;7.328;2023-06-22T07:54:40;14.40;;;10.13;;
37455;SDS011;23316;50.718;7.328;2023-06-22T07:57:22;12.15;;;9.40;;
37455;SDS011;23316;50.718;7.328;2023-06-22T08:00:29;12.45;;;8.57;;
37455;SDS011;23316;50.718;7.328;2023-06-22T08:03:08;10.00;;;8.10;;
37455;SDS011;23316;50.718;7.328;2023-06-22T08:05:35;13.15;;;10.48;;
37455;SDS011;23316;50.718;7.328;2023-06-22T08:08:02;10.88;;;9.40;;
37455;SDS011;23316;50.718;7.328;2023-06-22T08:10:29;10.00;;;8.27;;
37455;SDS011;23316;50.718;7.328;2023-06-22T08:12:57;9.43;;;8.45;;
37455;SDS011;23316;50.718;7.328;2023-06-22T08:15:25;13.43;;;9.23;;
37455;SDS011;23316;50.718;7.328;2023-06-22T08:17:55;10.10;;;8.73;;
37455;SDS011;23316;50.718;7.328;2023-06-22T08:20:23;10.60;;;8.70;;
37455;SDS011;23316;50.718;7.328;2023-06-22T08:22:50;11.23;;;8.57;;
37455;SDS011;23316;50.718;7.328;2023-06-22T08:25:17;9.60;;;8.45;;
37455;SDS011;23316;50.718;7.328;2023-06-22T08:27:45;13.27;;;9.05;;
37455;SDS011;23316;50.718;7.328;2023-06-22T08:30:14;11.60;;;8.15;;
37455;SDS011;23316;50.718;7.328;2023-06-22T08:32:43;8.82;;;7.93;;
37455;SDS011;23316;50.718;7.328;2023-06-22T08:35:11;12.45;;;8.23;;
37455;SDS011;23316;50.718;7.328;2023-06-22T08:37:38;9.88;;;8.02;;
37455;SDS011;23316;50.718;7.328;2023-06-22T08:40:06;9.48;;;8.07;;
37455;SDS011;23316;50.718;7.328;2023-06-22T08:42:35;9.50;;;8.43;;
37455;SDS011;23316;50.718;7.328;2023-06-22T08:45:03;9.85;;;8.25;;
37455;SDS011;23316;50.718;7.328;2023-06-22T08:47:31;9.90;;;8.32;;
37455;SDS011;23316;50.718;7.328;2023-06-22T08:50:00;9.55;;;7.80;;
37455;SDS011;23316;50.718;7.328;2023-06-22T08:52:28;9.23;;;7.85;;
37455;SDS011;23316;50.718;7.328;2023-06-22T08:54:56;9.35;;;7.65;;
37455;SDS011;23316;50.718;7.328;2023-06-22T08:57:23;13.13;;;8.73;;
37455;SDS011;23316;50.718;7.328;2023-06-22T08:59:51;9.90;;;7.70;;
37455;SDS011;23316;50.718;7.328;2023-06-22T09:02:18;10.52;;;9.05;;
37455;SDS011;23316;50.718;7.328;2023-06-22T09:04:46;10.15;;;8.05;;
37455;SDS011;23316;50.718;7.328;2023-06-22T09:07:15;10.15;;;8.57;;
37455;SDS011;23316;50.718;7.328;2023-06-22T09:09:47;9.65;;;7.80;;
37455;SDS011;23316;50.718;7.328;2023-06-22T09:12:14;46.38;;;9.68;;
37455;SDS011;23316;50.718;7.328;2023-06-22T09:14:42;30.27;;;9.35;;
37455;SDS011;23316;50.718;7.328;2023-06-22T09:17:09;49.35;;;10.90;;
37455;SDS011;23316;50.718;7.328;2023-06-22T09:19:37;11.73;;;8.18;;
37455;SDS011;23316;50.718;7.328;2023-06-22T09:22:04;9.07;;;8.13;;
37455;SDS011;23316;50.718;7.328;2023-06-22T09:24:33;10.43;;;7.78;;
37455;SDS011;23316;50.718;7.328;2023-06-22T09:27:01;12.05;;;7.97;;
37455;SDS011;23316;50.718;7.328;2023-06-22T09:29:28;10.48;;;8.32;;
37455;SDS011;23316;50.718;7.328;2023-06-22T09:31:59;10.48;;;8.15;;
37455;SDS011;23316;50.718;7.328;2023-06-22T09:34:26;9.63;;;8.05;;
37455;SDS011;23316;50.718;7.328;2023-06-22T09:36:53;9.23;;;7.95;;
37455;SDS011;23316;50.718;7.328;2023-06-22T09:39:22;9.15;;;7.82;;
37455;SDS011;23316;50.718;7.328;2023-06-22T09:41:51;12.38;;;8.55;;
37455;SDS011;23316;50.718;7.328;2023-06-22T09:44:18;8.88;;;7.97;;
37455;SDS011;23316;50.718;7.328;2023-06-22T09:46:45;15.25;;;8.80;;
37455;SDS011;23316;50.718;7.328;2023-06-22T09:49:13;11.35;;;8.55;;
37455;SDS011;23316;50.718;7.328;2023-06-22T09:51:40;9.27;;;8.00;;
37455;SDS011;23316;50.718;7.328;2023-06-22T09:54:07;11.38;;;8.68;;
37455;SDS011;23316;50.718;7.328;2023-06-22T09:56:34;9.65;;;7.97;;
37455;SDS011;23316;50.718;7.328;2023-06-22T09:59:04;9.77;;;8.23;;
37455;SDS011;23316;50.718;7.328;2023-06-22T10:01:31;9.52;;;8.20;;
37455;SDS011;23316;50.718;7.328;2023-06-22T10:03:58;9.57;;;7.90;;
37455;SDS011;23316;50.718;7.328;2023-06-22T10:06:26;8.98;;;7.65;;
37455;SDS011;23316;50.718;7.328;2023-06-22T10:08:53;9.05;;;7.97;;
37455;SDS011;23316;50.718;7.328;2023-06-22T10:11:21;8.60;;;7.70;;
37455;SDS011;23316;50.718;7.328;2023-06-22T10:13:52;10.48;;;7.55;;
37455;SDS011;23316;50.718;7.328;2023-06-22T10:16:21;9.50;;;8.05;;
37455;SDS011;23316;50.718;7.328;2023-06-22T10:18:48;9.02;;;7.80;;
37455;SDS011;23316;50.718;7.328;2023-06-22T10:21:15;10.80;;;7.88;;
37455;SDS011;23316;50.718;7.328;2023-06-22T10:23:42;8.98;;;7.97;;
37455;SDS011;23316;50.718;7.328;2023-06-22T10:26:09;10.13;;;8.25;;
37455;SDS011;23316;50.718;7.328;2023-06-22T10:28:37;9.20;;;7.80;;
37455;SDS011;23316;50.718;7.328;2023-06-22T10:31:04;9.65;;;8.15;;
37455;SDS011;23316;50.718;7.328;2023-06-22T10:33:32;9.27;;;8.27;;
37455;SDS011;23316;50.718;7.328;2023-06-22T10:36:00;9.52;;;8.35;;
37455;SDS011;23316;50.718;7.328;2023-06-22T10:38:27;10.05;;;9.00;;
37455;SDS011;23316;50.718;7.328;2023-06-22T10:40:54;10.50;;;8.45;;
37455;SDS011;23316;50.718;7.328;2023-06-22T10:43:21;12.30;;;8.40;;
37455;SDS011;23316;50.718;7.328;2023-06-22T10:45:49;15.25;;;8.50;;
37455;SDS011;23316;50.718;7.328;2023-06-22T10:48:16;11.02;;;8.50;;
37455;SDS011;23316;50.718;7.328;2023-06-22T10:50:44;10.43;;;8.57;;
37455;SDS011;23316;50.718;7.328;2023-06-22T10:53:13;9.73;;;8.68;;
37455;SDS011;23316;50.718;7.328;2023-06-22T10:55:40;10.65;;;9.02;;
37455;SDS011;23316;50.718;7.328;2023-06-22T10:58:07;12.18;;;9.25;;
37455;SDS011;23316;50.718;7.328;2023-06-22T11:00:34;10.30;;;8.95;;
37455;SDS011;23316;50.718;7.328;2023-06-22T11:03:02;16.50;;;9.80;;
37455;SDS011;23316;50.718;7.328;2023-06-22T11:05:29;15.15;;;10.10;;
37455;SDS011;23316;50.718;7.328;2023-06-22T11:07:57;21.25;;;11.93;;
37455;SDS011;23316;50.718;7.328;2023-06-22T11:10:24;15.85;;;10.88;;
37455;SDS011;23316;50.718;7.328;2023-06-22T11:12:52;16.25;;;10.80;;
37455;SDS011;23316;50.718;7.328;2023-06-22T11:15:21;12.02;;;9.45;;
37455;SDS011;23316;50.718;7.328;2023-06-22T11:17:48;14.15;;;10.07;;
37455;SDS011;23316;50.718;7.328;2023-06-22T11:20:15;11.43;;;9.32;;
37455;SDS011;23316;50.718;7.328;2023-06-22T11:22:42;13.13;;;9.70;;
37455;SDS011;23316;50.718;7.328;2023-06-22T11:25:11;14.77;;;10.88;;
37455;SDS011;23316;50.718;7.328;2023-06-22T11:27:38;15.00;;;9.68;;
37455;SDS011;23316;50.718;7.328;2023-06-22T11:30:06;12.82;;;9.50;;
37455;SDS011;23316;50.718;7.328;2023-06-22T11:32:34;13.20;;;9.57;;
37455;SDS011;23316;50.718;7.328;2023-06-22T11:35:01;12.52;;;10.07;;
37455;SDS011;23316;50.718;7.328;2023-06-22T11:37:29;14.57;;;11.40;;
37455;SDS011;23316;50.718;7.328;2023-06-22T11:39:56;15.15;;;11.73;;
37455;SDS011;23316;50.718;7.328;2023-06-22T11:42:25;18.75;;;13.27;;
37455;SDS011;23316;50.718;7.328;2023-06-22T11:44:53;25.35;;;15.70;;
37455;SDS011;23316;50.718;7.328;2023-06-22T11:47:21;16.17;;;12.77;;
37455;SDS011;23316;50.718;7.328;2023-06-22T11:49:48;18.25;;;14.30;;
37455;SDS011;23316;50.718;7.328;2023-06-22T11:52:15;22.95;;;15.23;;
37455;SDS011;23316;50.718;7.328;2023-06-22T11:54:43;17.15;;;14.15;;
37455;SDS011;23316;50.718;7.328;2023-06-22T11:57:11;16.45;;;13.55;;
37455;SDS011;23316;50.718;7.328;2023-06-22T11:59:39;14.57;;;12.32;;
37455;SDS011;23316;50.718;7.328;2023-06-22T12:02:06;16.88;;;13.77;;
37455;SDS011;23316;50.718;7.328;2023-06-22T12:04:35;17.48;;;13.98;;
37455;SDS011;23316;50.718;7.328;2023-06-22T12:07:02;16.83;;;12.60;;
37455;SDS011;23316;50.718;7.328;2023-06-22T12:09:29;15.25;;;12.73;;
37455;SDS011;23316;50.718;7.328;2023-06-22T12:11:57;17.88;;;12.35;;
37455;SDS011;23316;50.718;7.328;2023-06-22T12:14:24;12.88;;;10.88;;
37455;SDS011;23316;50.718;7.328;2023-06-22T12:16:52;15.15;;;10.73;;
37455;SDS011;23316;50.718;7.328;2023-06-22T12:19:20;13.02;;;10.60;;
37455;SDS011;23316;50.718;7.328;2023-06-22T12:21:47;13.63;;;10.55;;
37455;SDS011;23316;50.718;7.328;2023-06-22T12:24:14;11.70;;;10.30;;
37455;SDS011;23316;50.718;7.328;2023-06-22T12:26:41;14.07;;;11.32;;
37455;SDS011;23316;50.718;7.328;2023-06-22T12:29:09;12.27;;;10.38;;
37455;SDS011;23316;50.718;7.328;2023-06-22T12:31:36;12.82;;;10.13;;
37455;SDS011;23316;50.718;7.328;2023-06-22T12:34:06;13.07;;;10.18;;
37455;SDS011;23316;50.718;7.328;2023-06-22T12:36:33;14.38;;;10.77;;
37455;SDS011;23316;50.718;7.328;2023-06-22T12:39:01;11.35;;;9.45;;
37455;SDS011;23316;50.718;7.328;2023-06-22T12:41:28;10.88;;;9.77;;
37455;SDS011;23316;50.718;7.328;2023-06-22T12:43:55;12.98;;;9.90;;
37455;SDS011;23316;50.718;7.328;2023-06-22T12:46:22;9.75;;;8.73;;
37455;SDS011;23316;50.718;7.328;2023-06-22T12:48:49;13.15;;;10.43;;
37455;SDS011;23316;50.718;7.328;2023-06-22T12:51:21;11.75;;;10.23;;
37455;SDS011;23316;50.718;7.328;2023-06-22T12:53:49;13.18;;;10.15;;
37455;SDS011;23316;50.718;7.328;2023-06-22T12:56:16;11.68;;;9.82;;
37455;SDS011;23316;50.718;7.328;2023-06-22T12:58:43;12.30;;;9.77;;
37455;SDS011;23316;50.718;7.328;2023-06-22T13:01:10;10.73;;;9.45;;
37455;SDS011;23316;50.718;7.328;2023-06-22T13:03:38;12.23;;;10.13;;
37455;SDS011;23316;50.718;7.328;2023-06-22T13:06:05;11.85;;;8.93;;
37455;SDS011;23316;50.718;7.328;2023-06-22T13:08:34;11.65;;;8.45;;
37455;SDS011;23316;50.718;7.328;2023-06-22T13:11:01;10.02;;;8.88;;
37455;SDS011;23316;50.718;7.328;2023-06-22T13:13:28;10.70;;;8.13;;
37455;SDS011;23316;50.718;7.328;2023-06-22T13:15:56;8.80;;;7.22;;
37455;SDS011;23316;50.718;7.328;2023-06-22T13:18:23;11.73;;;8.23;;
37455;SDS011;23316;50.718;7.328;2023-06-22T13:20:50;9.40;;;7.45;;
37455;SDS011;23316;50.718;7.328;2023-06-22T13:23:20;9.30;;;7.80;;
37455;SDS011;23316;50.718;7.328;2023-06-22T13:25:48;9.57;;;8.20;;
37455;SDS011;23316;50.718;7.328;2023-06-22T13:28:15;11.43;;;7.78;;
37455;SDS011;23316;50.718;7.328;2023-06-22T13:30:43;9.40;;;7.88;;
37455;SDS011;23316;50.718;7.328;2023-06-22T13:33:12;13.35;;;8.60;;
37455;SDS011;23316;50.718;7.328;2023-06-22T13:35:40;9.15;;;8.15;;
37455;SDS011;23316;50.718;7.328;2023-06-22T13:38:08;9.73;;;8.15;;
37455;SDS011;23316;50.718;7.328;2023-06-22T13:40:36;9.18;;;7.38;;
37455;SDS011;23316;50.718;7.328;2023-06-22T13:43:05;12.40;;;9.23;;
37455;SDS011;23316;50.718;7.328;2023-06-22T13:45:33;12.77;;;8.63;;
37455;SDS011;23316;50.718;7.328;2023-06-22T13:48:01;11.02;;;8.63;;
37455;SDS011;23316;50.718;7.328;2023-06-22T13:50:28;11.13;;;8.15;;
37455;SDS011;23316;50.718;7.328;2023-06-22T13:52:56;10.52;;;7.85;;
37455;SDS011;23316;50.718;7.328;2023-06-22T13:55:23;8.50;;;7.63;;
37455;SDS011;23316;50.718;7.328;2023-06-22T13:57:52;8.43;;;7.07;;
37455;SDS011;23316;50.718;7.328;2023-06-22T14:00:20;9.00;;;7.57;;
37455;SDS011;23316;50.718;7.328;2023-06-22T14:02:48;10.55;;;7.15;;
37455;SDS011;23316;50.718;7.328;2023-06-22T14:05:16;8.90;;;7.32;;
37455;SDS011;23316;50.718;7.328;2023-06-22T14:07:43;10.93;;;7.90;;
37455;SDS011;23316;50.718;7.328;2023-06-22T14:10:10;10.30;;;8.63;;
37455;SDS011;23316;50.718;7.328;2023-06-22T14:12:38;8.98;;;7.65;;
37455;SDS011;23316;50.718;7.328;2023-06-22T14:15:05;10.02;;;8.02;;
37455;SDS011;23316;50.718;7.328;2023-06-22T14:17:34;11.68;;;7.57;;
37455;SDS011;23316;50.718;7.328;2023-06-22T14:20:02;8.55;;;7.45;;
37455;SDS011;23316;50.718;7.328;2023-06-22T14:22:31;11.32;;;7.57;;
37455;SDS011;23316;50.718;7.328;2023-06-22T14:24:58;9.02;;;7.20;;
37455;SDS011;23316;50.718;7.328;2023-06-22T14:27:25;11.75;;;7.00;;
37455;SDS011;23316;50.718;7.328;2023-06-22T14:29:52;12.32;;;7.50;;
37455;SDS011;23316;50.718;7.328;2023-06-22T14:32:20;9.98;;;8.13;;
37455;SDS011;23316;50.718;7.328;2023-06-22T14:34:49;8.25;;;7.18;;
37455;SDS011;23316;50.718;7.328;2023-06-22T14:37:16;11.57;;;7.85;;
37455;SDS011;23316;50.718;7.328;2023-06-22T14:39:43;12.27;;;8.38;;
37455;SDS011;23316;50.718;7.328;2023-06-22T14:42:10;9.75;;;7.97;;
37455;SDS011;23316;50.718;7.328;2023-06-22T14:44:37;8.82;;;7.78;;
37455;SDS011;23316;50.718;7.328;2023-06-22T14:47:05;10.32;;;7.85;;
37455;SDS011;23316;50.718;7.328;2023-06-22T14:49:33;9.85;;;7.60;;
37455;SDS011;23316;50.718;7.328;2023-06-22T14:52:02;9.05;;;7.70;;